createdAt,value
2017-09-28T00:00:37.079Z,87.86
2017-09-28T00:03:05.701Z,88.10
2017-09-28T00:05:34.815Z,88.01
2017-09-28T00:08:02.768Z,87.24
2017-09-28T00:10:30.733Z,87.48
2017-09-28T00:12:58.627Z,87.53
2017-09-28T00:15:26.641Z,88.10
2017-09-28T00:17:54.536Z,88.79
2017-09-28T00:20:22.488Z,88.48
2017-09-28T00:22:50.366Z,88.40
2017-09-28T00:25:18.237Z,87.68
2017-09-28T00:27:46.185Z,88.27
2017-09-28T00:30:14.083Z,87.87
2017-09-28T00:32:42.095Z,87.48
2017-09-28T00:35:10.076Z,86.98
2017-09-28T00:37:38.055Z,87.22
2017-09-28T00:40:06.954Z,87.66
2017-09-28T00:42:34.805Z,87.28
2017-09-28T00:45:02.605Z,87.82
2017-09-28T00:47:30.503Z,87.93
2017-09-28T00:49:58.488Z,87.47
2017-09-28T00:52:26.307Z,86.71
2017-09-28T00:54:54.060Z,87.77
2017-09-28T00:57:21.785Z,88.21
2017-09-28T00:59:49.814Z,87.74
2017-09-28T01:02:17.728Z,87.41
2017-09-28T01:04:45.784Z,87.09
2017-09-28T01:07:13.742Z,87.20
2017-09-28T01:09:41.594Z,87.42
2017-09-28T01:12:09.672Z,86.94
2017-09-28T01:14:37.573Z,87.19
2017-09-28T01:17:05.652Z,87.56
2017-09-28T01:19:33.518Z,88.41
2017-09-28T01:22:01.296Z,87.80
2017-09-28T01:24:29.397Z,87.10
2017-09-28T01:26:57.393Z,87.76
2017-09-28T01:29:25.220Z,87.41
2017-09-28T01:31:53.057Z,87.93
2017-09-28T01:34:20.902Z,87.75
2017-09-28T01:36:48.867Z,87.70
2017-09-28T01:39:16.731Z,87.74
2017-09-28T01:41:44.605Z,87.70
2017-09-28T01:44:12.492Z,87.96
2017-09-28T01:46:40.442Z,87.89
2017-09-28T01:49:08.455Z,88.16
2017-09-28T01:51:36.198Z,87.50
2017-09-28T01:54:04.210Z,87.32
2017-09-28T01:56:32.098Z,87.27
2017-09-28T01:59:00.049Z,86.93
2017-09-28T02:01:27.812Z,87.76
2017-09-28T02:03:55.707Z,87.57
2017-09-28T02:06:23.689Z,87.31
2017-09-28T02:08:51.628Z,86.49
2017-09-28T02:11:19.561Z,87.30
2017-09-28T02:13:47.444Z,87.96
2017-09-28T02:16:15.379Z,87.63
2017-09-28T02:18:43.277Z,87.69
2017-09-28T02:21:11.022Z,88.46
2017-09-28T02:23:38.852Z,88.08
2017-09-28T02:26:07.605Z,87.28
2017-09-28T02:28:35.525Z,87.09
2017-09-28T02:31:03.311Z,87.26
2017-09-28T02:33:31.233Z,87.76
2017-09-28T02:35:59.159Z,88.09
2017-09-28T02:38:27.162Z,88.03
2017-09-28T02:40:55.115Z,88.01
2017-09-28T02:43:22.799Z,88.72
2017-09-28T02:45:50.705Z,88.55
2017-09-28T02:48:18.692Z,88.13
2017-09-28T02:50:46.647Z,88.25
2017-09-28T02:53:14.603Z,87.79
2017-09-28T02:55:42.601Z,87.82
2017-09-28T02:58:10.867Z,87.53
2017-09-28T03:00:38.771Z,88.33
2017-09-28T03:03:06.748Z,88.53
2017-09-28T03:05:34.619Z,88.71
2017-09-28T03:08:02.574Z,88.88
2017-09-28T03:10:30.562Z,88.92
2017-09-28T03:12:58.252Z,88.71
2017-09-28T03:15:26.077Z,89.35
2017-09-28T03:17:54.033Z,89.37
2017-09-28T03:20:22.069Z,89.43
2017-09-28T03:22:50.119Z,89.11
2017-09-28T03:25:18.082Z,89.51
2017-09-28T03:27:46.025Z,89.00
2017-09-28T03:30:13.943Z,88.90
2017-09-28T03:32:41.728Z,89.45
2017-09-28T03:35:09.523Z,89.63
2017-09-28T03:37:37.209Z,88.87
2017-09-28T03:40:05.764Z,88.51
2017-09-28T03:42:33.715Z,89.00
2017-09-28T03:45:01.759Z,88.79
2017-09-28T03:47:29.733Z,88.76
2017-09-28T03:49:57.772Z,89.18
2017-09-28T03:52:25.708Z,88.99
2017-09-28T03:54:53.658Z,88.40
2017-09-28T03:57:21.644Z,88.63
2017-09-28T03:59:49.535Z,88.15
2017-09-28T04:02:17.419Z,88.78
2017-09-28T04:04:45.334Z,88.56
2017-09-28T04:07:13.366Z,89.00
2017-09-28T04:09:41.250Z,89.42
2017-09-28T04:12:09.292Z,89.78
2017-09-28T04:14:37.242Z,88.87
2017-09-28T04:17:05.208Z,89.13
2017-09-28T04:19:33.161Z,89.26
2017-09-28T04:22:01.080Z,89.01
2017-09-28T04:24:28.998Z,88.19
2017-09-28T04:26:56.882Z,88.90
2017-09-28T04:29:24.868Z,89.11
2017-09-28T04:31:52.765Z,89.62
2017-09-28T04:34:21.004Z,89.44
2017-09-28T04:36:48.881Z,89.34
2017-09-28T04:39:16.567Z,89.71
2017-09-28T04:41:44.272Z,90.24
2017-09-28T04:44:12.100Z,90.56
2017-09-28T04:46:40.424Z,89.84
2017-09-28T04:49:09.409Z,90.19
2017-09-28T04:51:37.160Z,89.80
2017-09-28T04:54:04.991Z,89.67
2017-09-28T04:56:32.665Z,89.67
2017-09-28T04:59:00.401Z,89.90
2017-09-28T05:01:29.111Z,89.65
2017-09-28T05:03:56.816Z,89.66
2017-09-28T05:06:24.692Z,89.99
2017-09-28T05:08:52.384Z,90.25
2017-09-28T05:11:20.106Z,90.61
2017-09-28T05:13:48.409Z,90.77
2017-09-28T05:16:16.099Z,90.27
2017-09-28T05:18:44.041Z,90.33
2017-09-28T05:21:11.738Z,90.02
2017-09-28T05:23:39.447Z,89.99
2017-09-28T05:26:07.156Z,90.08
2017-09-28T05:28:34.861Z,90.52
2017-09-28T05:31:02.701Z,90.64
2017-09-28T05:33:30.414Z,90.81
2017-09-28T05:35:58.153Z,90.48
2017-09-28T05:38:25.943Z,91.09
2017-09-28T05:40:53.763Z,91.04
2017-09-28T05:43:21.530Z,90.48
2017-09-28T05:45:49.318Z,90.01
2017-09-28T05:48:17.149Z,89.57
2017-09-28T05:50:44.943Z,89.27
2017-09-28T05:53:12.764Z,89.56
2017-09-28T05:55:40.685Z,88.99
2017-09-28T05:58:08.348Z,88.83
2017-09-28T06:00:36.166Z,88.96
2017-09-28T06:03:03.935Z,89.03
2017-09-28T06:05:32.468Z,88.22
2017-09-28T06:08:00.217Z,89.01
2017-09-28T06:10:27.934Z,88.85
2017-09-28T06:12:55.642Z,89.12
2017-09-28T06:15:23.360Z,88.90
2017-09-28T06:17:51.049Z,88.98
2017-09-28T06:20:19.814Z,88.74
2017-09-28T06:22:47.791Z,87.53
2017-09-28T06:25:15.487Z,87.74
2017-09-28T06:27:43.179Z,87.00
2017-09-28T06:30:10.934Z,86.46
2017-09-28T06:32:38.690Z,85.78
2017-09-28T06:35:06.502Z,85.91
2017-09-28T06:37:34.214Z,86.19
2017-09-28T06:40:02.014Z,85.98
2017-09-28T06:42:29.707Z,85.49
2017-09-28T06:44:57.446Z,85.07
2017-09-28T06:47:25.237Z,85.41
2017-09-28T06:49:52.963Z,86.71
2017-09-28T06:52:20.770Z,87.39
2017-09-28T06:54:48.516Z,86.91
2017-09-28T06:57:16.314Z,85.72
2017-09-28T06:59:44.013Z,84.56
2017-09-28T07:02:11.721Z,83.34
2017-09-28T07:04:39.489Z,83.77
2017-09-28T07:07:07.228Z,83.09
2017-09-28T07:09:34.938Z,81.90
2017-09-28T07:12:02.652Z,81.45
2017-09-28T07:14:30.749Z,82.44
2017-09-28T07:16:58.541Z,81.70
2017-09-28T07:19:26.228Z,79.94
2017-09-28T07:21:53.986Z,80.80
2017-09-28T07:24:21.879Z,81.85
2017-09-28T07:26:49.569Z,80.81
2017-09-28T07:29:17.323Z,79.25
2017-09-28T07:31:45.084Z,78.86
2017-09-28T07:34:12.902Z,78.81
2017-09-28T07:36:40.607Z,77.48
2017-09-28T07:39:08.334Z,75.96
2017-09-28T07:41:36.108Z,75.13
2017-09-28T07:44:03.867Z,72.95
2017-09-28T07:46:31.610Z,72.85
2017-09-28T07:48:59.387Z,74.07
2017-09-28T07:51:27.202Z,72.66
2017-09-28T07:53:55.984Z,71.84
2017-09-28T07:56:23.734Z,70.00
2017-09-28T07:58:51.665Z,69.60
2017-09-28T08:01:19.365Z,69.36
2017-09-28T08:03:47.043Z,69.50
2017-09-28T08:06:14.838Z,68.71
2017-09-28T08:08:42.534Z,69.06
2017-09-28T08:11:10.290Z,69.42
2017-09-28T08:13:38.019Z,69.25
2017-09-28T08:16:05.767Z,68.51
2017-09-28T08:18:33.548Z,67.16
2017-09-28T08:21:01.313Z,67.66
2017-09-28T08:23:29.489Z,66.39
2017-09-28T08:25:57.285Z,67.84
2017-09-28T08:28:25.766Z,68.88
2017-09-28T08:30:54.059Z,68.28
2017-09-28T08:33:21.971Z,66.02
2017-09-28T08:35:49.787Z,68.32
2017-09-28T08:38:17.544Z,67.00
2017-09-28T08:40:45.261Z,65.78
2017-09-28T08:43:12.974Z,63.64
2017-09-28T08:45:40.699Z,63.96
2017-09-28T08:48:08.465Z,63.85
2017-09-28T08:50:36.159Z,62.92
2017-09-28T08:53:04.510Z,61.78
2017-09-28T08:55:32.251Z,60.72
2017-09-28T08:57:59.984Z,61.25
2017-09-28T09:00:27.814Z,63.29
2017-09-28T09:02:55.469Z,61.35
2017-09-28T09:05:23.230Z,62.48
2017-09-28T09:07:50.898Z,61.19
2017-09-28T09:10:18.578Z,59.70
2017-09-28T09:12:46.361Z,59.25
2017-09-28T09:15:14.062Z,58.96
2017-09-28T09:17:41.772Z,58.40
2017-09-28T09:20:09.515Z,57.65
2017-09-28T09:22:37.895Z,57.52
2017-09-28T09:25:05.655Z,57.96
2017-09-28T09:27:33.355Z,55.83
2017-09-28T09:30:01.081Z,53.93
2017-09-28T09:32:28.855Z,58.02
2017-09-28T09:34:56.686Z,56.04
2017-09-28T09:37:24.394Z,54.01
2017-09-28T09:39:52.188Z,53.21
2017-09-28T09:42:19.941Z,55.22
2017-09-28T09:44:47.664Z,54.03
2017-09-28T09:47:15.436Z,51.75
2017-09-28T09:49:43.210Z,53.17
2017-09-28T09:52:10.898Z,51.23
2017-09-28T09:54:38.727Z,52.93
2017-09-28T09:57:07.092Z,52.05
2017-09-28T09:59:34.803Z,46.49
2017-09-28T10:02:02.731Z,53.00
2017-09-28T10:04:31.190Z,52.01
2017-09-28T10:07:01.611Z,49.43
2017-09-28T10:09:31.917Z,49.20
2017-09-28T10:12:02.826Z,50.49
2017-09-28T10:14:33.819Z,50.71
2017-09-28T10:17:01.681Z,53.08
2017-09-28T10:19:29.440Z,52.58
2017-09-28T10:21:57.255Z,52.74
2017-09-28T10:24:24.985Z,52.99
2017-09-28T10:26:52.788Z,52.26
2017-09-28T10:29:20.596Z,52.00
2017-09-28T10:31:49.337Z,51.14
2017-09-28T10:34:17.080Z,48.67
2017-09-28T10:36:44.836Z,51.11
2017-09-28T10:39:12.566Z,51.69
2017-09-28T10:41:40.267Z,47.38
2017-09-28T10:44:08.023Z,48.91
2017-09-28T10:46:35.748Z,49.42
2017-09-28T10:49:03.479Z,50.87
2017-09-28T10:51:31.255Z,50.11
2017-09-28T10:53:59.309Z,50.17
2017-09-28T10:56:27.146Z,47.02
2017-09-28T10:58:54.850Z,49.35
2017-09-28T11:01:22.604Z,49.58
2017-09-28T11:03:50.458Z,49.05
2017-09-28T11:06:18.393Z,50.83
2017-09-28T11:08:46.448Z,50.29
2017-09-28T11:11:14.311Z,48.38
2017-09-28T11:13:42.232Z,49.25
2017-09-28T11:16:10.653Z,48.43
2017-09-28T11:18:38.423Z,49.83
2017-09-28T11:21:06.174Z,49.90
2017-09-28T11:23:33.989Z,48.89
2017-09-28T11:26:01.729Z,46.94
2017-09-28T11:28:29.436Z,46.31
2017-09-28T11:30:57.188Z,48.78
2017-09-28T11:33:24.952Z,44.93
2017-09-28T11:35:52.698Z,46.79
2017-09-28T11:38:20.448Z,46.62
2017-09-28T11:40:48.247Z,46.57
2017-09-28T11:43:15.956Z,45.81
2017-09-28T11:45:43.701Z,48.66
2017-09-28T11:48:11.377Z,44.75
2017-09-28T11:50:39.162Z,47.17
2017-09-28T11:53:06.882Z,46.58
2017-09-28T11:55:34.622Z,44.77
2017-09-28T11:58:02.896Z,45.80
2017-09-28T12:00:30.621Z,46.93
2017-09-28T12:02:58.367Z,46.38
2017-09-28T12:05:26.161Z,46.57
2017-09-28T12:07:53.911Z,46.76
2017-09-28T12:10:21.622Z,48.61
2017-09-28T12:12:49.389Z,47.75
2017-09-28T12:15:17.080Z,46.84
2017-09-28T12:17:44.792Z,46.01
2017-09-28T12:20:12.590Z,47.22
2017-09-28T12:22:40.297Z,45.38
2017-09-28T12:25:08.004Z,47.42
2017-09-28T12:27:35.807Z,45.16
2017-09-28T12:30:03.510Z,44.57
2017-09-28T12:32:31.227Z,44.61
2017-09-28T12:34:59.052Z,45.23
2017-09-28T12:37:26.745Z,46.14
2017-09-28T12:39:54.480Z,45.19
2017-09-28T12:42:22.280Z,45.69
2017-09-28T12:44:50.028Z,45.13
2017-09-28T12:47:17.784Z,45.95
2017-09-28T12:49:45.532Z,46.89
2017-09-28T12:52:13.227Z,45.58
2017-09-28T12:54:41.321Z,47.54
2017-09-28T12:57:09.043Z,47.31
2017-09-28T12:59:36.753Z,47.82
2017-09-28T13:02:04.471Z,48.13
2017-09-28T13:04:32.184Z,48.17
2017-09-28T13:07:00.251Z,47.80
2017-09-28T13:09:27.997Z,48.52
2017-09-28T13:11:56.775Z,47.50
2017-09-28T13:14:24.523Z,47.48
2017-09-28T13:16:52.230Z,47.27
2017-09-28T13:19:20.086Z,47.44
2017-09-28T13:21:48.073Z,47.25
2017-09-28T13:24:15.766Z,47.85
2017-09-28T13:26:43.437Z,47.60
2017-09-28T13:29:11.876Z,46.75
2017-09-28T13:31:39.607Z,48.56
2017-09-28T13:34:07.305Z,47.16
2017-09-28T13:36:35.097Z,47.29
2017-09-28T13:39:02.960Z,47.10
2017-09-28T13:41:30.701Z,47.59
2017-09-28T13:43:58.457Z,46.65
2017-09-28T13:46:26.204Z,48.27
2017-09-28T13:48:54.026Z,49.60
2017-09-28T13:51:21.756Z,48.87
2017-09-28T13:53:49.485Z,49.30
2017-09-28T13:56:17.288Z,50.76
2017-09-28T13:58:45.051Z,51.51
2017-09-28T14:01:12.826Z,51.65
2017-09-28T14:03:40.587Z,52.31
2017-09-28T14:06:08.403Z,52.43
2017-09-28T14:08:36.262Z,51.67
2017-09-28T14:11:04.014Z,51.16
2017-09-28T14:13:31.804Z,51.35
2017-09-28T14:15:59.588Z,52.67
2017-09-28T14:18:27.485Z,52.26
2017-09-28T14:20:55.288Z,49.83
2017-09-28T14:23:23.020Z,50.46
2017-09-28T14:25:50.750Z,50.98
2017-09-28T14:28:18.846Z,50.97
2017-09-28T14:30:46.665Z,52.23
2017-09-28T14:33:14.432Z,51.44
2017-09-28T14:35:42.754Z,51.39
2017-09-28T14:38:10.644Z,51.26
2017-09-28T14:40:38.367Z,52.34
2017-09-28T14:43:06.986Z,51.48
2017-09-28T14:45:34.717Z,52.14
2017-09-28T14:48:02.715Z,51.85
2017-09-28T14:50:31.617Z,52.68
2017-09-28T14:52:59.312Z,54.79
2017-09-28T14:55:27.350Z,54.21
2017-09-28T14:57:56.124Z,52.49
2017-09-28T15:00:23.966Z,55.10
2017-09-28T15:02:51.756Z,55.73
2017-09-28T15:05:19.612Z,54.90
2017-09-28T15:07:47.385Z,54.93
2017-09-28T15:10:15.164Z,54.69
2017-09-28T15:12:42.864Z,56.77
2017-09-28T15:15:11.135Z,56.77
2017-09-28T15:17:38.879Z,55.71
2017-09-28T15:20:06.689Z,56.46
2017-09-28T15:22:34.461Z,56.48
2017-09-28T15:25:02.207Z,59.42
2017-09-28T15:27:30.034Z,59.06
2017-09-28T15:29:57.890Z,61.15
2017-09-28T15:32:25.667Z,58.90
2017-09-28T15:34:53.434Z,58.57
2017-09-28T15:37:21.306Z,59.20
2017-09-28T15:39:49.135Z,58.17
2017-09-28T15:42:16.948Z,57.84
2017-09-28T15:44:44.717Z,58.30
2017-09-28T15:47:12.627Z,59.30
2017-09-28T15:49:40.352Z,61.56
2017-09-28T15:52:08.192Z,59.82
2017-09-28T15:54:35.909Z,57.74
2017-09-28T15:57:03.621Z,58.99
2017-09-28T15:59:31.465Z,60.54
2017-09-28T16:01:59.215Z,61.19
2017-09-28T16:04:26.940Z,61.34
2017-09-28T16:06:54.776Z,63.43
2017-09-28T16:09:22.594Z,64.20
2017-09-28T16:11:50.390Z,62.96
2017-09-28T16:14:18.973Z,63.06
2017-09-28T16:16:46.668Z,63.51
2017-09-28T16:19:14.481Z,62.65
2017-09-28T16:21:42.253Z,63.44
2017-09-28T16:24:09.952Z,63.68
2017-09-28T16:26:37.640Z,65.61
2017-09-28T16:29:05.513Z,66.86
2017-09-28T16:31:33.305Z,67.06
2017-09-28T16:34:01.676Z,67.91
2017-09-28T16:36:29.558Z,69.71
2017-09-28T16:38:57.317Z,70.12
2017-09-28T16:41:26.137Z,70.23
2017-09-28T16:43:53.941Z,70.56
2017-09-28T16:46:21.754Z,71.50
2017-09-28T16:48:49.583Z,72.17
2017-09-28T16:51:17.330Z,71.64
2017-09-28T16:53:45.155Z,71.68
2017-09-28T16:56:14.039Z,72.42
2017-09-28T16:58:41.856Z,72.62
2017-09-28T17:01:09.680Z,72.94
2017-09-28T17:03:37.424Z,73.68
2017-09-28T17:06:05.828Z,73.61
2017-09-28T17:08:33.676Z,73.19
2017-09-28T17:11:01.560Z,73.82
2017-09-28T17:13:29.455Z,73.88
2017-09-28T17:15:57.233Z,74.29
2017-09-28T17:18:24.998Z,74.59
2017-09-28T17:20:52.790Z,75.01
2017-09-28T17:23:20.644Z,74.96
2017-09-28T17:25:48.455Z,75.47
2017-09-28T17:28:16.203Z,75.89
2017-09-28T17:30:45.109Z,75.62
2017-09-28T17:33:12.927Z,76.21
2017-09-28T17:35:40.622Z,75.93
2017-09-28T17:38:08.354Z,75.77
2017-09-28T17:40:36.205Z,76.24
2017-09-28T17:43:03.982Z,75.96
2017-09-28T17:45:31.866Z,76.11
2017-09-28T17:47:59.964Z,76.53
2017-09-28T17:50:27.754Z,76.90
2017-09-28T17:52:55.606Z,76.70
2017-09-28T17:55:24.323Z,76.83
2017-09-28T17:57:52.186Z,76.92
2017-09-28T18:00:20.153Z,77.50
2017-09-28T18:02:47.917Z,77.64
2017-09-28T18:05:15.641Z,77.12
2017-09-28T18:07:43.572Z,77.13
2017-09-28T18:10:11.341Z,77.49
2017-09-28T18:12:39.235Z,77.42
2017-09-28T18:15:08.077Z,77.47
2017-09-28T18:17:35.979Z,77.38
2017-09-28T18:20:04.329Z,77.81
2017-09-28T18:22:32.102Z,78.13
2017-09-28T18:24:59.906Z,78.03
2017-09-28T18:27:27.738Z,78.56
2017-09-28T18:29:55.772Z,78.58
2017-09-28T18:32:23.660Z,78.92
2017-09-28T18:34:51.507Z,78.84
2017-09-28T18:37:19.253Z,78.52
2017-09-28T18:39:46.957Z,79.15
2017-09-28T18:42:14.784Z,79.21
2017-09-28T18:44:42.864Z,78.87
2017-09-28T18:47:10.683Z,78.38
2017-09-28T18:49:38.466Z,78.55
2017-09-28T18:52:06.204Z,79.27
2017-09-28T18:54:33.990Z,79.54
2017-09-28T18:57:02.710Z,79.58
2017-09-28T18:59:30.542Z,78.73
2017-09-28T19:01:58.229Z,79.36
2017-09-28T19:04:26.070Z,79.52
2017-09-28T19:06:53.960Z,80.42
2017-09-28T19:09:21.788Z,80.36
2017-09-28T19:11:49.736Z,80.68
2017-09-28T19:14:17.553Z,80.80
2017-09-28T19:16:45.303Z,80.66
2017-09-28T19:19:13.114Z,81.09
2017-09-28T19:21:40.975Z,80.84
2017-09-28T19:24:08.691Z,81.08
2017-09-28T19:26:36.475Z,81.03
2017-09-28T19:29:04.321Z,80.54
2017-09-28T19:31:32.135Z,80.78
2017-09-28T19:34:00.220Z,81.40
2017-09-28T19:36:28.550Z,81.17
2017-09-28T19:38:56.576Z,81.16
2017-09-28T19:41:24.330Z,80.79
2017-09-28T19:43:53.067Z,81.48
2017-09-28T19:46:21.550Z,80.99
2017-09-28T19:48:49.290Z,80.97
2017-09-28T19:51:18.075Z,81.31
2017-09-28T19:53:45.874Z,81.66
2017-09-28T19:56:13.735Z,81.40
2017-09-28T19:58:41.724Z,81.79
2017-09-28T20:01:09.540Z,81.87
2017-09-28T20:03:37.317Z,81.68
2017-09-28T20:06:05.197Z,81.94
2017-09-28T20:08:33.387Z,82.15
2017-09-28T20:11:02.260Z,82.47
2017-09-28T20:13:30.040Z,82.75
2017-09-28T20:15:57.844Z,82.85
2017-09-28T20:18:25.678Z,83.01
2017-09-28T20:20:53.985Z,82.61
2017-09-28T20:23:21.957Z,82.71
2017-09-28T20:25:50.231Z,82.42
2017-09-28T20:28:17.981Z,82.50
2017-09-28T20:30:45.845Z,82.87
2017-09-28T20:33:13.626Z,82.55
2017-09-28T20:35:41.412Z,82.76
2017-09-28T20:38:09.330Z,82.61
2017-09-28T20:40:37.177Z,82.79
2017-09-28T20:43:04.964Z,82.47
2017-09-28T20:45:32.700Z,82.41
2017-09-28T20:48:00.537Z,82.73
2017-09-28T20:50:28.419Z,83.08
2017-09-28T20:52:56.376Z,83.22
2017-09-28T20:55:24.183Z,83.08
2017-09-28T20:57:51.958Z,83.64
2017-09-28T21:00:19.934Z,82.31
2017-09-28T21:02:47.798Z,82.51
2017-09-28T21:05:15.869Z,82.74
2017-09-28T21:07:43.708Z,83.01
2017-09-28T21:10:11.598Z,83.42
2017-09-28T21:12:39.317Z,83.72
2017-09-28T21:15:07.175Z,83.71
2017-09-28T21:17:34.925Z,82.78
2017-09-28T21:20:02.661Z,83.16
2017-09-28T21:22:30.428Z,82.87
2017-09-28T21:24:58.134Z,83.43
2017-09-28T21:27:26.020Z,83.21
2017-09-28T21:29:55.140Z,82.58
2017-09-28T21:32:22.857Z,82.48
2017-09-28T21:34:50.664Z,83.05
2017-09-28T21:37:18.376Z,83.27
2017-09-28T21:39:46.284Z,83.64
2017-09-28T21:42:14.123Z,83.00
2017-09-28T21:44:41.890Z,83.04
2017-09-28T21:47:09.673Z,83.10
2017-09-28T21:49:37.379Z,85.80
2017-09-28T21:52:05.099Z,84.83
2017-09-28T21:54:33.721Z,84.18
2017-09-28T21:57:01.592Z,83.74
2017-09-28T21:59:29.454Z,83.46
2017-09-28T22:01:57.931Z,83.84
2017-09-28T22:04:25.674Z,84.21
2017-09-28T22:06:53.541Z,84.16
2017-09-28T22:09:21.579Z,84.46
2017-09-28T22:11:49.331Z,85.25
2017-09-28T22:14:17.346Z,84.85
2017-09-28T22:16:45.086Z,84.28
2017-09-28T22:19:12.814Z,83.73
2017-09-28T22:21:40.683Z,84.25
2017-09-28T22:24:08.499Z,84.18
2017-09-28T22:26:36.486Z,85.05
2017-09-28T22:29:04.298Z,84.90
2017-09-28T22:31:32.030Z,84.75
2017-09-28T22:33:59.808Z,84.17
2017-09-28T22:36:27.506Z,84.29
2017-09-28T22:38:55.211Z,83.87
2017-09-28T22:41:23.040Z,83.81
2017-09-28T22:43:50.974Z,84.58
2017-09-28T22:46:18.747Z,84.65
2017-09-28T22:48:46.473Z,84.56
2017-09-28T22:51:14.212Z,84.51
2017-09-28T22:53:42.102Z,84.66
2017-09-28T22:56:09.846Z,84.17
2017-09-28T22:58:37.619Z,83.89
2017-09-28T23:01:05.414Z,84.74
2017-09-28T23:03:33.164Z,84.91
2017-09-28T23:06:00.925Z,84.01
2017-09-28T23:08:28.711Z,84.52
2017-09-28T23:10:56.456Z,85.82
2017-09-28T23:13:24.220Z,85.00
2017-09-28T23:15:51.897Z,84.23
2017-09-28T23:18:19.637Z,84.12
2017-09-28T23:20:47.362Z,84.59
2017-09-28T23:23:15.111Z,83.87
2017-09-28T23:25:42.937Z,84.50
2017-09-28T23:28:10.674Z,84.22
2017-09-28T23:30:38.394Z,85.11
2017-09-28T23:33:06.186Z,85.93
2017-09-28T23:35:33.968Z,85.23
2017-09-28T23:38:01.728Z,84.69
2017-09-28T23:40:29.427Z,85.48
2017-09-28T23:42:57.182Z,84.72
2017-09-28T23:45:24.885Z,85.49
2017-09-28T23:47:52.632Z,85.37
2017-09-28T23:50:20.399Z,85.96
2017-09-28T23:52:48.087Z,86.08
2017-09-28T23:55:15.852Z,86.38
2017-09-28T23:57:43.589Z,85.97
